KPTK

Oakland County International Airport

Pontiac, Michigan, USA
METAR KPTK 230453Z AUTO 00000KT 6SM BR FEW080 03/01 A2996 RMK AO2 SLP149 T00280011 401330011
Observed Flight Rules
Oct-23 @ 04:53 UTC (24 minutes ago) Visual Flight Rules
Visibility Clouds Conditions
6 miles
  • Few at 8,000' AGL
  • Mist
Temperatures Readings
Current 3°C / 37°F
Dewpoint 1°C / 34°F
Humidity 87%
Altimeter 29.96" Hg
Pressure 1014.9 hPa
Elevation 299
METAR KPTK 230453Z AUTO 00000KT 6SM BR FEW080 03/01 A2996 RMK AO2 SLP149 T00280011 401330011
Observed Flight Rules
Oct-23 @ 04:53 UTC
(24 minutes ago)
VFR
Clouds
  • Few at 8,000' AGL
Conditions
  • Mist
Temperature Dewpoint
3°C / 37°F 1°C / 34°F
Humidity Altimeter Pressure
87% 29.96" Hg 1014.9 hPa